Time;durP1;ratioP1;P1;durP2;ratioP2;P2;SDS_P1;SDS_P2;PMS_P1;PMS_P2;Temp;Humidity;BMP_temperature;BMP_pressure;BME280_temperature;BME280_humidity;BME280_pressure;Samples;Min_cycle;Max_cycle;Signal;HPM_P1;HPM_P2
2023/10/12 00:00:27;;;;;;;;;;;;;;;16.70;61.63;99822.59;1087585;46;1034;-78
2023/10/12 00:01:28;;;;;;;;;;;;;;;16.68;61.60;99817.38;1087497;46;1882;-78
2023/10/12 00:02:32;;;;;;;;;;;;;;;16.69;61.55;99823.59;1086797;47;1130;-79
2023/10/12 00:03:35;;;;;;;;;;;;;;;16.68;61.83;99824.63;1087589;54;1313;-78
2023/10/12 00:04:43;;;;;;;;;;;;;;;16.68;61.88;99819.22;1087714;54;1432;-78
2023/10/12 00:05:45;;;;;;;;;;;;;;;16.65;61.76;99815.06;1087583;54;1083;-77
2023/10/12 00:06:51;;;;;;;;;;;;;;;16.66;61.58;99815.91;1087657;47;1019;-79
2023/10/12 00:07:54;;;;;;;;;;;;;;;16.66;62.03;99821.31;1087706;46;1023;-79
2023/10/12 00:08:58;;;;;;;;;;;;;;;16.67;61.60;99813.00;1087609;47;1079;-78
2023/10/12 00:10:09;;;;;;;;;;;;;;;16.68;61.53;99808.44;1087613;47;877;-79
2023/10/12 00:11:12;;;;;;;;;;;;;;;16.69;61.54;99810.97;1087633;54;1031;-79
2023/10/12 00:12:14;;;;;;;;;;;;;;;16.69;61.85;99815.50;1087611;54;1348;-79
2023/10/12 00:13:20;;;;;;;;;;;;;;;16.68;61.41;99814.69;1087748;54;1030;-78
2023/10/12 00:14:22;;;;;;;;;;;;;;;16.67;61.46;99807.63;1087634;47;1176;-78
2023/10/12 00:15:24;;;;;;;;;;;;;;;16.64;61.84;99815.25;1087542;54;1018;-78
2023/10/12 00:16:28;;;;;;;;;;;;;;;16.66;61.91;99814.03;1087703;47;923;-78
2023/10/12 00:17:28;;;;;;;;;;;;;;;16.62;61.76;99810.06;1087936;47;939;-78
2023/10/12 00:18:35;;;;;;;;;;;;;;;16.60;61.92;99805.84;1088130;47;991;-78
2023/10/12 00:19:41;;;;;;;;;;;;;;;16.59;62.07;99809.56;1088038;47;1018;-78
2023/10/12 00:20:45;;;;;;;;;;;;;;;16.55;61.93;99809.13;1088267;54;1071;-79
2023/10/12 00:21:46;;;;;;;;;;;;;;;16.51;62.11;99810.53;1087629;46;1870;-77
2023/10/12 00:22:48;;;;;;;;;;;;;;;16.52;62.00;99810.34;1087625;54;889;-78
2023/10/12 00:23:52;;;;;;;;;;;;;;;16.52;62.25;99807.66;1088117;54;1062;-79
2023/10/12 00:24:54;;;;;;;;;;;;;;;16.48;61.92;99805.53;1088115;54;1406;-79
2023/10/12 00:26:00;;;;;;;;;;;;;;;16.43;62.30;99799.88;1088207;47;1093;-79
2023/10/12 00:27:02;;;;;;;;;;;;;;;16.41;62.16;99794.63;1088216;47;968;-79
2023/10/12 00:28:06;;;;;;;;;;;;;;;16.39;62.09;99799.38;1088181;54;1037;-78
2023/10/12 00:29:07;;;;;;;;;;;;;;;16.30;62.68;99795.97;1088094;46;908;-78
2023/10/12 00:30:12;;;;;;;;;;;;;;;16.29;62.59;99794.28;1087832;54;870;-78
2023/10/12 00:31:17;;;;;;;;;;;;;;;16.22;62.93;99801.47;1087978;46;1154;-79
2023/10/12 00:32:21;;;;;;;;;;;;;;;16.20;63.03;99790.03;1087721;47;978;-79
2023/10/12 00:33:23;;;;;;;;;;;;;;;16.19;63.26;99791.91;1087629;47;930;-78
2023/10/12 00:34:33;;;;;;;;;;;;;;;16.15;63.49;99784.38;1087566;47;1395;-79
2023/10/12 00:35:37;;;;;;;;;;;;;;;16.13;63.23;99781.84;1087796;54;889;-78
2023/10/12 00:36:40;;;;;;;;;;;;;;;16.08;63.90;99786.97;1087753;46;1051;-78
2023/10/12 00:37:43;;;;;;;;;;;;;;;16.04;63.64;99780.28;1087838;47;1026;-78
2023/10/12 00:38:45;;;;;;;;;;;;;;;16.05;63.76;99781.97;1087801;47;937;-79
2023/10/12 00:39:58;;;;;;;;;;;;;;;16.02;63.96;99782.31;1087778;47;996;-78
2023/10/12 00:41:03;;;;;;;;;;;;;;;16.02;64.15;99783.19;1087947;54;968;-80
2023/10/12 00:42:06;;;;;;;;;;;;;;;16.00;63.96;99777.13;1087564;54;1849;-79
2023/10/12 00:43:07;;;;;;;;;;;;;;;16.02;63.81;99777.78;1087744;54;936;-78
2023/10/12 00:44:12;;;;;;;;;;;;;;;16.01;64.22;99784.19;1087835;54;1042;-79
2023/10/12 00:45:18;;;;;;;;;;;;;;;15.95;64.30;99776.88;1087734;47;1121;-79
2023/10/12 00:46:32;;;;;;;;;;;;;;;15.95;63.94;99776.88;1087744;54;886;-78
2023/10/12 00:47:43;;;;;;;;;;;;;;;15.93;64.08;99778.06;1087719;47;979;-78
2023/10/12 00:48:48;;;;;;;;;;;;;;;15.88;64.56;99773.22;1087717;47;969;-78
2023/10/12 00:49:51;;;;;;;;;;;;;;;15.91;64.55;99780.94;1087670;47;907;-78
2023/10/12 00:50:56;;;;;;;;;;;;;;;15.94;64.24;99780.56;1087590;47;965;-79
2023/10/12 00:52:08;;;;;;;;;;;;;;;15.90;64.18;99777.41;1087569;47;1003;-79
2023/10/12 00:53:15;;;;;;;;;;;;;;;15.94;64.02;99777.03;1088210;47;871;-79
2023/10/12 00:54:25;;;;;;;;;;;;;;;15.88;64.44;99776.75;1088121;47;1357;-79
2023/10/12 00:55:35;;;;;;;;;;;;;;;15.93;64.13;99781.59;1088162;54;1174;-79
2023/10/12 00:56:43;;;;;;;;;;;;;;;15.96;63.92;99778.53;1087697;47;987;-79
2023/10/12 00:57:44;;;;;;;;;;;;;;;15.99;63.71;99777.31;1087679;54;880;-78
2023/10/12 00:58:47;;;;;;;;;;;;;;;15.96;63.79;99778.53;1087584;54;1025;-78
2023/10/12 00:59:51;;;;;;;;;;;;;;;15.95;63.93;99779.56;1087685;47;977;-79
2023/10/12 01:01:01;;;;;;;;;;;;;;;15.99;63.78;99786.22;1087722;54;1066;-79
2023/10/12 01:02:02;;;;;;;;;;;;;;;16.03;63.86;99778.59;1087580;54;1852;-79
2023/10/12 01:03:27;;;;;;;;;;;;;;;16.03;63.85;99782.16;1087190;54;1234;-78
2023/10/12 01:04:31;;;;;;;;;;;;;;;16.05;63.42;99782.81;1086971;47;1397;-77
2023/10/12 01:05:35;;;;;;;;;;;;;;;16.02;63.64;99775.09;1086792;47;985;-78
2023/10/12 01:06:41;;;;;;;;;;;;;;;16.02;63.62;99780.47;1086780;54;1099;-78
2023/10/12 01:07:42;;;;;;;;;;;;;;;16.02;63.57;99779.63;1086983;54;975;-77
2023/10/12 01:08:43;;;;;;;;;;;;;;;16.01;63.65;99777.97;1086787;47;1321;-77
2023/10/12 01:09:47;;;;;;;;;;;;;;;15.98;63.94;99781.03;1086943;47;1080;-77
2023/10/12 01:10:48;;;;;;;;;;;;;;;16.00;63.95;99773.59;1087134;54;1142;-77
2023/10/12 01:11:57;;;;;;;;;;;;;;;16.02;63.59;99772.38;1087025;47;1001;-77
2023/10/12 01:12:58;;;;;;;;;;;;;;;16.03;63.71;99770.50;1087089;54;961;-78
2023/10/12 01:14:09;;;;;;;;;;;;;;;15.96;63.78;99778.53;1087137;47;991;-78
2023/10/12 01:15:13;;;;;;;;;;;;;;;15.89;64.31;99772.19;1087392;47;1470;-77
2023/10/12 01:16:20;;;;;;;;;;;;;;;15.86;64.32;99773.41;1087434;47;1074;-77
2023/10/12 01:17:29;;;;;;;;;;;;;;;15.84;64.28;99774.63;1087293;54;1325;-78
2023/10/12 01:18:30;;;;;;;;;;;;;;;15.83;64.60;99770.22;1087193;47;940;-78
2023/10/12 01:19:44;;;;;;;;;;;;;;;15.82;64.46;99766.69;1087149;47;1096;-77
2023/10/12 01:20:45;;;;;;;;;;;;;;;15.77;64.50;99773.69;1087308;46;944;-78
2023/10/12 01:22:03;;;;;;;;;;;;;;;15.79;64.43;99777.00;1086775;47;1363;-78
2023/10/12 01:23:04;;;;;;;;;;;;;;;15.77;64.45;99770.97;1087070;54;1083;-77
2023/10/12 01:24:11;;;;;;;;;;;;;;;15.77;64.71;99765.59;1087151;47;1098;-78
2023/10/12 01:25:19;;;;;;;;;;;;;;;15.76;64.35;99772.81;1087250;54;1022;-79
2023/10/12 01:26:22;;;;;;;;;;;;;;;15.77;64.69;99773.69;1087262;54;1078;-78
2023/10/12 01:27:25;;;;;;;;;;;;;;;15.79;64.25;99767.06;1087048;47;1003;-77
2023/10/12 01:28:25;;;;;;;;;;;;;;;15.75;64.57;99766.59;1086991;47;1039;-78
2023/10/12 01:29:31;;;;;;;;;;;;;;;15.73;64.79;99770.50;1086944;54;1075;-78
2023/10/12 01:30:35;;;;;;;;;;;;;;;15.71;64.43;99757.22;1087038;47;1417;-78
2023/10/12 01:31:43;;;;;;;;;;;;;;;15.65;64.76;99760.66;1087086;54;1039;-78
2023/10/12 01:32:52;;;;;;;;;;;;;;;15.68;64.57;99757.56;1087294;54;1083;-79
2023/10/12 01:33:59;;;;;;;;;;;;;;;15.64;65.02;99755.44;1087446;54;1109;-78
2023/10/12 01:35:04;;;;;;;;;;;;;;;15.61;64.92;99753.94;1087555;54;1309;-78
2023/10/12 01:36:07;;;;;;;;;;;;;;;15.60;65.08;99757.66;1087444;54;1014;-78
2023/10/12 01:37:20;;;;;;;;;;;;;;;15.61;65.00;99753.94;1087373;47;1012;-78
2023/10/12 01:38:24;;;;;;;;;;;;;;;15.64;64.62;99753.59;1087845;54;1034;-78
2023/10/12 01:39:28;;;;;;;;;;;;;;;15.63;64.86;99754.59;1087925;54;918;-78
2023/10/12 01:40:54;;;;;;;;;;;;;;;15.59;65.04;99761.38;1087954;54;1314;-78
2023/10/12 01:41:55;;;;;;;;;;;;;;;15.62;64.86;99757.50;1087418;47;1519;-78
2023/10/12 01:43:00;;;;;;;;;;;;;;;15.64;64.59;99755.44;1087467;54;1846;-78
2023/10/12 01:44:01;;;;;;;;;;;;;;;15.67;64.59;99758.63;1087407;47;1240;-78
2023/10/12 01:45:06;;;;;;;;;;;;;;;15.63;64.95;99761.88;1087237;47;1327;-78
2023/10/12 01:46:08;;;;;;;;;;;;;;;15.63;64.69;99759.19;1087329;54;1034;-78
2023/10/12 01:47:13;;;;;;;;;;;;;;;15.64;64.79;99760.81;1087558;54;1070;-77
2023/10/12 01:48:16;;;;;;;;;;;;;;;15.64;64.71;99750.03;1087396;54;1035;-79
2023/10/12 01:49:21;;;;;;;;;;;;;;;15.65;64.66;99755.25;1087317;54;1098;-79
2023/10/12 01:50:24;;;;;;;;;;;;;;;15.62;64.82;99758.31;1087280;54;1003;-78
2023/10/12 01:51:29;;;;;;;;;;;;;;;15.66;64.43;99756.09;1087336;47;965;-77
2023/10/12 01:52:33;;;;;;;;;;;;;;;15.63;64.86;99757.31;1087515;54;888;-78
2023/10/12 01:53:40;;;;;;;;;;;;;;;15.68;64.43;99748.66;1087569;54;933;-77
2023/10/12 01:54:46;;;;;;;;;;;;;;;15.69;64.58;99744.94;1087471;47;1246;-77
2023/10/12 01:55:50;;;;;;;;;;;;;;;15.67;64.65;99750.53;1087407;47;1018;-79
2023/10/12 01:56:51;;;;;;;;;;;;;;;15.66;64.81;99748.00;1087359;47;987;-77
2023/10/12 01:57:55;;;;;;;;;;;;;;;15.69;64.51;99756.56;1087188;47;975;-78
2023/10/12 01:58:55;;;;;;;;;;;;;;;15.74;64.29;99753.31;1087309;54;1003;-77
2023/10/12 01:59:59;;;;;;;;;;;;;;;15.73;64.20;99752.47;1087224;54;967;-78
2023/10/12 02:01:05;;;;;;;;;;;;;;;15.73;64.57;99752.47;1087335;54;1088;-77
2023/10/12 02:02:13;;;;;;;;;;;;;;;15.72;64.63;99752.66;1087225;54;1861;-77
2023/10/12 02:03:15;;;;;;;;;;;;;;;15.65;64.99;99752.56;1087185;54;1082;-78
2023/10/12 02:04:21;;;;;;;;;;;;;;;15.60;65.20;99757.66;1087252;54;1355;-78
2023/10/12 02:05:25;;;;;;;;;;;;;;;15.63;64.73;99757.31;1087416;54;1107;-78
2023/10/12 02:06:31;;;;;;;;;;;;;;;15.60;65.01;99752.28;1087393;47;980;-77
2023/10/12 02:07:34;;;;;;;;;;;;;;;15.57;64.97;99753.47;1087382;54;994;-77
2023/10/12 02:08:39;;;;;;;;;;;;;;;15.59;64.81;99746.06;1087300;54;939;-77
2023/10/12 02:09:44;;;;;;;;;;;;;;;15.59;64.69;99745.22;1087244;54;1008;-77
2023/10/12 02:10:55;;;;;;;;;;;;;;;15.55;65.23;99746.63;1087017;47;1031;-77
2023/10/12 02:12:09;;;;;;;;;;;;;;;15.54;65.12;99742.25;1087162;54;1063;-77
2023/10/12 02:13:10;;;;;;;;;;;;;;;15.52;65.05;99746.97;1087279;54;1408;-77
2023/10/12 02:14:23;;;;;;;;;;;;;;;15.53;65.06;99740.56;1087338;54;1301;-77
2023/10/12 02:15:29;;;;;;;;;;;;;;;15.51;65.24;99742.59;1087395;54;1095;-77
2023/10/12 02:16:37;;;;;;;;;;;;;;;15.52;65.18;99742.44;1087409;54;1401;-77
2023/10/12 02:17:38;;;;;;;;;;;;;;;15.50;65.09;99747.16;1087218;47;1034;-77
2023/10/12 02:18:43;;;;;;;;;;;;;;;15.54;65.24;99742.25;1087305;47;911;-77
2023/10/12 02:19:43;;;;;;;;;;;;;;;15.53;65.26;99746.81;1087342;54;1366;-77
2023/10/12 02:21:06;;;;;;;;;;;;;;;15.53;65.15;99745.97;1087323;47;1027;-77
2023/10/12 02:22:18;;;;;;;;;;;;;;;15.53;65.03;99748.66;1087008;47;1299;-77
2023/10/12 02:23:24;;;;;;;;;;;;;;;15.55;64.88;99738.53;1087219;54;1060;-77
2023/10/12 02:24:24;;;;;;;;;;;;;;;15.54;65.12;99743.06;1087213;47;1345;-77
2023/10/12 02:25:30;;;;;;;;;;;;;;;15.55;64.96;99742.06;1087280;54;1106;-77
2023/10/12 02:26:35;;;;;;;;;;;;;;;15.59;65.08;99755.97;1087210;47;1019;-77
2023/10/12 02:27:39;;;;;;;;;;;;;;;15.60;64.77;99750.44;1087202;47;1003;-77
2023/10/12 02:28:42;;;;;;;;;;;;;;;15.62;64.86;99750.25;1087321;54;1106;-76
2023/10/12 02:29:48;;;;;;;;;;;;;;;15.60;65.33;99750.44;1087224;54;1102;-77
2023/10/12 02:30:55;;;;;;;;;;;;;;;15.62;65.20;99750.25;1087321;47;1329;-77
2023/10/12 02:31:58;;;;;;;;;;;;;;;15.62;65.05;99750.25;1087112;54;1018;-77
2023/10/12 02:33:07;;;;;;;;;;;;;;;15.64;64.69;99750.03;1087127;47;1006;-77
2023/10/12 02:34:14;;;;;;;;;;;;;;;15.66;64.80;99750.69;1087449;54;1401;-76
2023/10/12 02:35:19;;;;;;;;;;;;;;;15.64;65.29;99752.72;1087384;54;1102;-77
2023/10/12 02:36:20;;;;;;;;;;;;;;;15.62;65.01;99752.09;1087332;54;1105;-77
2023/10/12 02:37:24;;;;;;;;;;;;;;;15.64;65.02;99752.72;1087588;54;1409;-77
2023/10/12 02:38:28;;;;;;;;;;;;;;;15.60;64.89;99754.97;1087810;54;935;-78
2023/10/12 02:39:31;;;;;;;;;;;;;;;15.62;65.01;99749.41;1088141;54;1023;-77
2023/10/12 02:40:33;;;;;;;;;;;;;;;15.65;64.96;99755.25;1087664;47;1015;-77
2023/10/12 02:41:37;;;;;;;;;;;;;;;15.67;65.05;99761.31;1087825;54;1015;-77
2023/10/12 02:42:38;;;;;;;;;;;;;;;15.67;64.89;99752.38;1087732;46;1851;-77
2023/10/12 02:43:50;;;;;;;;;;;;;;;15.66;64.78;99759.63;1087396;54;1115;-77
2023/10/12 02:45:07;;;;;;;;;;;;;;;15.65;65.14;99759.81;1086502;46;1338;-77
2023/10/12 02:46:21;;;;;;;;;;;;;;;15.67;65.04;99750.53;1086795;47;1062;-77
2023/10/12 02:47:22;;;;;;;;;;;;;;;15.69;64.72;99756.56;1086576;47;1389;-78
2023/10/12 02:48:23;;;;;;;;;;;;;;;15.71;64.60;99759.91;1086618;47;1058;-77
2023/10/12 02:49:27;;;;;;;;;;;;;;;15.76;64.53;99745.88;1086514;47;969;-78
2023/10/12 02:50:29;;;;;;;;;;;;;;;15.80;64.27;99749.88;1086433;46;1038;-77
2023/10/12 02:51:37;;;;;;;;;;;;;;;15.79;64.62;99753.59;1086537;46;1301;-78
2023/10/12 02:52:37;;;;;;;;;;;;;;;15.80;64.60;99762.50;1086525;54;1079;-77
2023/10/12 02:53:44;;;;;;;;;;;;;;;15.77;64.76;99760.19;1086645;47;1115;-78
2023/10/12 02:54:50;;;;;;;;;;;;;;;15.80;64.38;99752.56;1086594;47;1320;-78
2023/10/12 02:55:53;;;;;;;;;;;;;;;15.78;64.54;99765.41;1086716;54;1158;-79
2023/10/12 02:57:02;;;;;;;;;;;;;;;15.86;64.43;99751.84;1086933;54;1099;-77
2023/10/12 02:58:07;;;;;;;;;;;;;;;15.82;64.43;99761.28;1086574;47;1043;-78
2023/10/12 02:59:10;;;;;;;;;;;;;;;15.77;64.83;99762.91;1086984;54;1099;-78
2023/10/12 03:00:12;;;;;;;;;;;;;;;15.81;64.67;99756.09;1087855;54;1414;-79
2023/10/12 03:01:19;;;;;;;;;;;;;;;15.87;64.43;99760.78;1087973;46;942;-78
2023/10/12 03:02:20;;;;;;;;;;;;;;;15.86;64.51;99761.81;1087818;54;992;-78
2023/10/12 03:03:31;;;;;;;;;;;;;;;15.78;64.66;99776.16;1087943;46;1856;-78
2023/10/12 03:04:38;;;;;;;;;;;;;;;15.81;64.59;99758.78;1087985;54;1423;-79
2023/10/12 03:05:46;;;;;;;;;;;;;;;15.81;64.56;99759.63;1087865;47;1037;-79
2023/10/12 03:07:03;;;;;;;;;;;;;;;15.84;64.78;99758.47;1087869;47;1035;-79
2023/10/12 03:08:06;;;;;;;;;;;;;;;15.75;64.76;99760.38;1087834;47;961;-79
2023/10/12 03:09:17;;;;;;;;;;;;;;;15.81;64.74;99756.94;1087896;47;988;-79
2023/10/12 03:10:25;;;;;;;;;;;;;;;15.79;64.79;99752.75;1087563;54;1036;-77
2023/10/12 03:11:28;;;;;;;;;;;;;;;15.78;64.88;99749.22;1087454;54;1331;-78
2023/10/12 03:12:34;;;;;;;;;;;;;;;15.77;64.58;99752.13;1088023;47;1113;-80
2023/10/12 03:13:35;;;;;;;;;;;;;;;15.74;64.65;99754.16;1088093;47;979;-79
2023/10/12 03:14:41;;;;;;;;;;;;;;;15.74;64.54;99751.47;1086980;47;1334;-79
2023/10/12 03:15:42;;;;;;;;;;;;;;;15.72;64.79;99750.81;1087102;47;1051;-78
2023/10/12 03:16:45;;;;;;;;;;;;;;;15.71;64.67;99759.91;1087586;47;1135;-79
2023/10/12 03:17:54;;;;;;;;;;;;;;;15.68;64.87;99762.97;1087303;47;1066;-78
2023/10/12 03:19:00;;;;;;;;;;;;;;;15.72;64.66;99755.38;1087043;46;1059;-78
2023/10/12 03:20:17;;;;;;;;;;;;;;;15.73;64.66;99765.09;1087121;47;1079;-77
2023/10/12 03:21:17;;;;;;;;;;;;;;;15.78;64.48;99765.41;1087760;54;1144;-78
2023/10/12 03:22:25;;;;;;;;;;;;;;;15.75;64.79;99771.16;1087807;47;1047;-78
2023/10/12 03:23:26;;;;;;;;;;;;;;;15.76;64.49;99772.81;1087515;46;1893;-78
2023/10/12 03:24:43;;;;;;;;;;;;;;;15.74;64.56;99774.84;1087588;54;1593;-78
2023/10/12 03:25:46;;;;;;;;;;;;;;;15.74;64.50;99774.84;1086895;54;955;-77
2023/10/12 03:27:04;;;;;;;;;;;;;;;15.71;64.58;99776.06;1086349;47;1083;-78
2023/10/12 03:28:11;;;;;;;;;;;;;;;15.71;64.75;99776.06;1085450;47;1073;-78
2023/10/12 03:29:18;;;;;;;;;;;;;;;15.73;64.78;99779.44;1085482;46;1087;-77
2023/10/12 03:30:34;;;;;;;;;;;;;;;15.70;64.92;99779.78;1085670;54;1034;-77
2023/10/12 03:31:52;;;;;;;;;;;;;;;15.67;65.24;99772.09;1085694;47;1168;-77
2023/10/12 03:32:53;;;;;;;;;;;;;;;15.74;64.55;99778.41;1086997;47;1012;-78
2023/10/12 03:33:57;;;;;;;;;;;;;;;15.69;64.84;99777.28;1087679;46;912;-78
2023/10/12 03:34:57;;;;;;;;;;;;;;;15.71;64.71;99781.47;1087427;46;1356;-78
2023/10/12 03:36:12;;;;;;;;;;;;;;;15.73;64.74;99782.13;1087249;47;1103;-79
2023/10/12 03:37:16;;;;;;;;;;;;;;;15.68;64.98;99783.69;1087406;46;1066;-79
2023/10/12 03:38:35;;;;;;;;;;;;;;;15.74;64.86;99781.09;1088210;47;1339;-78
2023/10/12 03:39:58;;;;;;;;;;;;;;;15.74;64.91;99774.84;1088422;47;1015;-80
2023/10/12 03:42:41;;;;;;;;;;;;;;;15.68;65.14;99787.22;1088511;47;903;-79
2023/10/12 03:43:46;;;;;;;;;;;;;;;15.68;65.11;99787.22;1088626;54;948;-79
2023/10/12 03:44:55;;;;;;;;;;;;;;;15.70;64.93;99782.47;1088236;54;1418;-79
2023/10/12 03:46:16;;;;;;;;;;;;;;;15.64;65.33;99787.75;1088471;54;1078;-78
2023/10/12 03:47:31;;;;;;;;;;;;;;;15.67;65.10;99790.09;1088321;47;1175;-79
2023/10/12 03:48:49;;;;;;;;;;;;;;;15.65;65.21;99782.22;1088141;54;996;-79
2023/10/12 03:50:06;;;;;;;;;;;;;;;15.69;64.88;99786.19;1088267;54;911;-79
2023/10/12 03:51:23;;;;;;;;;;;;;;;15.70;64.95;99781.66;1088618;47;1030;-78
2023/10/12 03:52:34;;;;;;;;;;;;;;;15.72;64.70;99787.69;1088415;47;1336;-78
2023/10/12 03:53:45;;;;;;;;;;;;;;;15.71;64.69;99783.34;1088429;54;1075;-79
2023/10/12 03:55:19;;;;;;;;;;;;;;;15.76;64.58;99789.00;1088319;47;1191;-79
2023/10/12 03:56:22;;;;;;;;;;;;;;;15.76;64.79;99786.28;1087997;47;908;-78
2023/10/12 03:57:38;;;;;;;;;;;;;;;15.75;64.94;99790.88;1088379;46;1027;-79
2023/10/12 03:58:47;;;;;;;;;;;;;;;15.77;64.69;99784.44;1088198;54;979;-79
2023/10/12 04:00:25;;;;;;;;;;;;;;;15.80;64.71;99786.75;1088270;54;980;-78
2023/10/12 04:01:22;;;;;;;;;;;;;;;15.81;64.41;99783.03;1088065;47;1411;-78
2023/10/12 04:02:25;;;;;;;;;;;;;;;15.80;64.79;99778.66;1088091;54;972;-79
2023/10/12 04:03:35;;;;;;;;;;;;;;;15.81;64.46;99783.03;1088168;54;1852;-79
2023/10/12 04:04:45;;;;;;;;;;;;;;;15.82;64.59;99774.75;1088432;47;1348;-79
2023/10/12 04:05:51;;;;;;;;;;;;;;;15.80;64.71;99776.84;1087057;54;920;-78
2023/10/12 04:07:19;;;;;;;;;;;;;;;15.77;64.74;99779.88;1086350;54;1091;-78
2023/10/12 04:09:42;;;;;;;;;;;;;;;15.73;64.94;99783.97;1086913;47;976;-78
2023/10/12 04:12:18;;;;;;;;;;;;;;;15.71;64.84;99786.84;1086790;46;896;-78
2023/10/12 04:14:50;;;;;;;;;;;;;;;15.69;64.88;99788.88;1087779;47;1402;-78
2023/10/12 04:17:19;;;;;;;;;;;;;;;15.68;65.22;99789.91;1086714;54;1132;-78
2023/10/12 04:18:27;;;;;;;;;;;;;;;15.71;65.19;99792.25;1087387;54;1107;-78
2023/10/12 04:19:32;;;;;;;;;;;;;;;15.67;65.46;99788.25;1087519;47;1007;-77
2023/10/12 04:20:33;;;;;;;;;;;;;;;15.67;65.53;99790.09;1087341;47;1004;-78
2023/10/12 04:21:40;;;;;;;;;;;;;;;15.68;65.13;99794.47;1086925;47;1122;-78
2023/10/12 04:25:32;;;;;;;;;;;;;;;15.67;65.76;99801.72;1088285;47;1002;-77
2023/10/12 04:26:44;;;;;;;;;;;;;;;15.68;65.66;99797.16;1088184;46;1090;-77
2023/10/12 04:27:50;;;;;;;;;;;;;;;15.68;65.79;99799.84;1088060;47;1095;-77
2023/10/12 04:28:55;;;;;;;;;;;;;;;15.68;65.68;99806.06;1088044;46;947;-77
2023/10/12 04:29:57;;;;;;;;;;;;;;;15.70;65.45;99800.53;1088004;46;1166;-76
2023/10/12 04:32:36;;;;;;;;;;;;;;;15.74;65.32;99799.97;1087642;47;872;-76
2023/10/12 04:33:43;;;;;;;;;;;;;;;15.72;65.47;99802.00;1086963;47;1386;-78
2023/10/12 04:34:50;;;;;;;;;;;;;;;15.73;65.33;99787.50;1087197;47;1610;-78
2023/10/12 04:36:09;;;;;;;;;;;;;;;15.73;65.47;99794.75;1087988;54;1397;-78
2023/10/12 04:37:11;;;;;;;;;;;;;;;15.75;65.12;99788.16;1088179;47;995;-79
2023/10/12 04:38:23;;;;;;;;;;;;;;;15.73;65.27;99792.03;1088157;47;1046;-78
2023/10/12 04:39:27;;;;;;;;;;;;;;;15.75;65.37;99788.16;1088177;47;967;-78
2023/10/12 04:40:36;;;;;;;;;;;;;;;15.75;65.47;99777.38;1088136;54;1114;-78
2023/10/12 04:41:42;;;;;;;;;;;;;;;15.73;65.32;99784.81;1088226;54;970;-79
2023/10/12 04:42:47;;;;;;;;;;;;;;;15.71;65.35;99784.16;1088072;47;840;-77
2023/10/12 04:43:53;;;;;;;;;;;;;;;15.72;65.79;99782.31;1088270;54;1852;-77
2023/10/12 04:45:03;;;;;;;;;;;;;;;15.72;65.55;99782.31;1088075;54;1374;-78
2023/10/12 04:46:26;;;;;;;;;;;;;;;15.76;65.29;99794.38;1088139;54;912;-78
2023/10/12 04:47:30;;;;;;;;;;;;;;;15.77;65.27;99793.38;1087890;46;840;-77
2023/10/12 04:48:31;;;;;;;;;;;;;;;15.78;65.49;99799.56;1087691;47;992;-77
2023/10/12 04:50:59;;;;;;;;;;;;;;;15.80;65.46;99805.63;1087897;47;1009;-78
2023/10/12 04:52:15;;;;;;;;;;;;;;;15.74;65.78;99809.88;1087680;47;1340;-78
2023/10/12 04:53:35;;;;;;;;;;;;;;;15.76;65.65;99815.94;1087629;47;991;-78
2023/10/12 04:54:49;;;;;;;;;;;;;;;15.77;65.33;99806.00;1087587;47;1353;-79
2023/10/12 04:55:53;;;;;;;;;;;;;;;15.78;65.29;99813.91;1087922;54;1284;-78
2023/10/12 04:57:13;;;;;;;;;;;;;;;15.79;65.28;99807.50;1088012;54;893;-79
2023/10/12 04:58:31;;;;;;;;;;;;;;;15.78;65.41;99813.03;1087749;47;895;-78
2023/10/12 04:59:42;;;;;;;;;;;;;;;15.79;65.42;99815.56;1088212;54;1484;-78
2023/10/12 05:00:59;;;;;;;;;;;;;;;15.72;66.29;99812.78;1087823;54;1011;-78
2023/10/12 05:02:24;;;;;;;;;;;;;;;15.75;65.80;99816.94;1087756;54;978;-78
2023/10/12 05:03:33;;;;;;;;;;;;;;;15.72;66.17;99822.72;1087736;47;1861;-78
2023/10/12 05:04:36;;;;;;;;;;;;;;;15.73;65.74;99817.16;1087634;47;1389;-79
2023/10/12 05:07:27;;;;;;;;;;;;;;;15.70;66.70;99822.91;1087536;47;966;-78
2023/10/12 05:08:31;;;;;;;;;;;;;;;15.71;66.31;99824.56;1087471;54;1129;-78
2023/10/12 05:09:34;;;;;;;;;;;;;;;15.72;66.06;99814.66;1087144;54;1141;-79
2023/10/12 05:10:48;;;;;;;;;;;;;;;15.73;66.00;99824.38;1087035;54;1042;-77
2023/10/12 05:11:51;;;;;;;;;;;;;;;15.74;65.89;99818.81;1086890;54;1146;-78
2023/10/12 05:12:57;;;;;;;;;;;;;;;15.69;66.56;99823.91;1087319;54;1035;-78
2023/10/12 05:14:10;;;;;;;;;;;;;;;15.71;66.36;99813.78;1086849;54;1449;-78
2023/10/12 05:15:11;;;;;;;;;;;;;;;15.72;66.41;99814.66;1087051;54;1348;-78
2023/10/12 05:16:17;;;;;;;;;;;;;;;15.74;65.95;99820.66;1086923;54;1198;-78
2023/10/12 05:17:17;;;;;;;;;;;;;;;15.73;65.95;99817.16;1086794;54;1545;-78
2023/10/12 05:18:18;;;;;;;;;;;;;;;15.74;66.19;99826.91;1087201;54;1442;-79
2023/10/12 05:19:21;;;;;;;;;;;;;;;15.74;65.97;99829.59;1087471;47;1094;-79
2023/10/12 05:20:24;;;;;;;;;;;;;;;15.74;66.49;99820.66;1086717;54;1094;-78
2023/10/12 05:21:27;;;;;;;;;;;;;;;15.73;66.06;99830.63;1086334;47;1110;-78
2023/10/12 05:22:28;;;;;;;;;;;;;;;15.75;65.88;99833.13;1087089;54;844;-79
2023/10/12 05:23:29;;;;;;;;;;;;;;;15.74;65.88;99826.06;1086668;54;1869;-78
2023/10/12 05:24:32;;;;;;;;;;;;;;;15.73;66.21;99827.06;1086783;54;1373;-79
2023/10/12 05:25:47;;;;;;;;;;;;;;;15.75;66.17;99822.34;1087443;54;1138;-79
2023/10/12 05:26:54;;;;;;;;;;;;;;;15.75;65.74;99820.50;1085835;54;1086;-78
2023/10/12 05:28:08;;;;;;;;;;;;;;;15.76;65.67;99815.94;1085331;47;999;-77
2023/10/12 05:29:34;;;;;;;;;;;;;;;15.73;66.11;99827.94;1085418;47;1182;-78
2023/10/12 05:30:37;;;;;;;;;;;;;;;15.71;66.19;99824.56;1086238;54;1023;-78
2023/10/12 05:31:48;;;;;;;;;;;;;;;15.71;66.07;99823.75;1086294;47;1308;-78
2023/10/12 05:32:55;;;;;;;;;;;;;;;15.65;65.89;99825.31;1086991;47;1000;-77
2023/10/12 05:35:49;;;;;;;;;;;;;;;15.68;65.81;99830.31;1086894;47;1066;-78
2023/10/12 05:36:44;;;;;;;;;;;;;;;15.72;66.01;99831.63;1086880;47;999;-78
2023/10/12 05:37:51;;;;;;;;;;;;;;;15.70;66.26;99833.69;1087093;47;1356;-78
2023/10/12 05:38:52;;;;;;;;;;;;;;;15.69;66.15;99833.88;1086683;54;1035;-79
2023/10/12 05:39:55;;;;;;;;;;;;;;;15.63;66.26;99832.75;1087089;54;1027;-78
2023/10/12 05:40:58;;;;;;;;;;;;;;;15.62;66.43;99836.44;1086823;47;1138;-79
2023/10/12 05:42:05;;;;;;;;;;;;;;;15.64;66.26;99839.81;1087093;54;1059;-79
2023/10/12 05:43:21;;;;;;;;;;;;;;;15.54;66.61;99844.63;1086828;47;1008;-78
2023/10/12 05:44:26;;;;;;;;;;;;;;;15.52;66.82;99835.88;1087810;54;1338;-80
2023/10/12 05:45:31;;;;;;;;;;;;;;;15.54;66.44;99836.53;1087310;54;956;-78
2023/10/12 05:46:33;;;;;;;;;;;;;;;15.55;66.58;99838.22;1085801;54;1069;-78
2023/10/12 05:47:36;;;;;;;;;;;;;;;15.55;66.43;99835.50;1085425;54;1182;-79
2023/10/12 05:48:40;;;;;;;;;;;;;;;15.53;66.18;99842.94;1085849;54;1036;-79
2023/10/12 05:49:45;;;;;;;;;;;;;;;15.47;66.66;99849.88;1087289;47;1003;-79
2023/10/12 05:50:49;;;;;;;;;;;;;;;15.48;66.59;99850.75;1087467;47;1039;-79
2023/10/12 05:51:50;;;;;;;;;;;;;;;15.50;66.50;99843.28;1087609;54;1038;-79
2023/10/12 05:52:59;;;;;;;;;;;;;;;15.53;66.20;99845.63;1087234;54;959;-80
2023/10/12 05:54:02;;;;;;;;;;;;;;;15.53;66.48;99848.31;1087136;54;1031;-78
2023/10/12 05:55:14;;;;;;;;;;;;;;;15.53;66.90;99842.94;1087254;47;1473;-79
2023/10/12 05:56:17;;;;;;;;;;;;;;;15.55;66.53;99846.28;1087524;47;881;-79
2023/10/12 05:57:21;;;;;;;;;;;;;;;15.57;66.25;99841.56;1087256;54;1352;-79
2023/10/12 05:58:25;;;;;;;;;;;;;;;15.61;66.43;99842.84;1087511;46;1071;-77
2023/10/12 05:59:26;;;;;;;;;;;;;;;15.64;66.37;99844.34;1085103;47;1051;-77
2023/10/12 06:00:41;;;;;;;;;;;;;;;15.64;66.04;99847.91;1083685;54;1349;-77
2023/10/12 06:01:45;;;;;;;;;;;;;;;15.65;66.16;99837.94;1084278;47;1043;-77
2023/10/12 06:02:48;;;;;;;;;;;;;;;15.67;65.88;99844.00;1083621;47;1535;-77
2023/10/12 06:03:56;;;;;;;;;;;;;;;15.69;66.08;99841.94;1083124;47;1898;-77
2023/10/12 06:05:01;;;;;;;;;;;;;;;15.70;66.14;99839.06;1083088;47;1615;-77
2023/10/12 06:06:02;;;;;;;;;;;;;;;15.73;66.08;99843.25;1083399;47;1141;-78
2023/10/12 20:07:19;;;;;;;;;;;;;;;19.13;64.04;99901.69;1088572;46;1723;-80
2023/10/12 20:08:20;;;;;;;;;;;;;;;19.12;64.23;99905.47;1088587;54;1046;-80
2023/10/12 20:09:30;;;;;;;;;;;;;;;19.08;64.48;99905.03;1088104;47;1858;-81